sensor_id;sensor_type;location;lat;lon;timestamp;P1;durP1;ratioP1;P2;durP2;ratioP2
74632;SDS011;63139;52.018;8.552;2023-02-22T00:01:54;40.58;;;16.48;;
74632;SDS011;63139;52.018;8.552;2023-02-22T00:04:50;35.00;;;14.80;;
74632;SDS011;63139;52.018;8.552;2023-02-22T00:07:17;35.33;;;15.02;;
74632;SDS011;63139;52.018;8.552;2023-02-22T00:09:46;30.50;;;14.13;;
74632;SDS011;63139;52.018;8.552;2023-02-22T00:12:14;39.90;;;15.73;;
74632;SDS011;63139;52.018;8.552;2023-02-22T00:14:42;33.00;;;14.38;;
74632;SDS011;63139;52.018;8.552;2023-02-22T00:17:10;31.10;;;13.95;;
74632;SDS011;63139;52.018;8.552;2023-02-22T00:19:38;34.38;;;14.48;;
74632;SDS011;63139;52.018;8.552;2023-02-22T00:22:07;33.33;;;14.70;;
74632;SDS011;63139;52.018;8.552;2023-02-22T00:24:35;36.67;;;15.27;;
74632;SDS011;63139;52.018;8.552;2023-02-22T00:27:03;36.22;;;14.10;;
74632;SDS011;63139;52.018;8.552;2023-02-22T00:29:31;28.90;;;13.50;;
74632;SDS011;63139;52.018;8.552;2023-02-22T00:31:59;33.65;;;14.13;;
74632;SDS011;63139;52.018;8.552;2023-02-22T00:34:27;30.90;;;12.95;;
74632;SDS011;63139;52.018;8.552;2023-02-22T00:36:55;33.75;;;14.20;;
74632;SDS011;63139;52.018;8.552;2023-02-22T00:39:24;31.65;;;14.77;;
74632;SDS011;63139;52.018;8.552;2023-02-22T00:41:52;31.02;;;13.40;;
74632;SDS011;63139;52.018;8.552;2023-02-22T00:44:20;31.27;;;12.57;;
74632;SDS011;63139;52.018;8.552;2023-02-22T00:46:47;32.30;;;13.70;;
74632;SDS011;63139;52.018;8.552;2023-02-22T00:49:15;32.50;;;13.30;;
74632;SDS011;63139;52.018;8.552;2023-02-22T00:51:43;33.10;;;13.55;;
74632;SDS011;63139;52.018;8.552;2023-02-22T00:54:11;32.80;;;13.60;;
74632;SDS011;63139;52.018;8.552;2023-02-22T00:56:41;29.70;;;12.38;;
74632;SDS011;63139;52.018;8.552;2023-02-22T00:59:09;27.00;;;11.80;;
74632;SDS011;63139;52.018;8.552;2023-02-22T01:01:36;24.92;;;11.30;;
74632;SDS011;63139;52.018;8.552;2023-02-22T01:04:04;28.05;;;12.40;;
74632;SDS011;63139;52.018;8.552;2023-02-22T01:06:32;30.80;;;11.93;;
74632;SDS011;63139;52.018;8.552;2023-02-22T01:09:00;26.48;;;10.82;;
74632;SDS011;63139;52.018;8.552;2023-02-22T01:11:30;27.27;;;11.75;;
74632;SDS011;63139;52.018;8.552;2023-02-22T01:14:01;27.77;;;11.80;;
74632;SDS011;63139;52.018;8.552;2023-02-22T01:16:28;33.03;;;12.40;;
74632;SDS011;63139;52.018;8.552;2023-02-22T01:18:56;24.45;;;10.20;;
74632;SDS011;63139;52.018;8.552;2023-02-22T01:21:26;27.95;;;10.90;;
74632;SDS011;63139;52.018;8.552;2023-02-22T01:23:54;26.40;;;10.45;;
74632;SDS011;63139;52.018;8.552;2023-02-22T01:26:22;28.13;;;10.38;;
74632;SDS011;63139;52.018;8.552;2023-02-22T01:28:50;29.58;;;11.55;;
74632;SDS011;63139;52.018;8.552;2023-02-22T01:31:19;29.52;;;10.90;;
74632;SDS011;63139;52.018;8.552;2023-02-22T01:33:49;34.95;;;12.52;;
74632;SDS011;63139;52.018;8.552;2023-02-22T01:36:17;30.30;;;10.48;;
74632;SDS011;63139;52.018;8.552;2023-02-22T01:38:45;41.33;;;12.40;;
74632;SDS011;63139;52.018;8.552;2023-02-22T01:41:12;48.55;;;15.20;;
74632;SDS011;63139;52.018;8.552;2023-02-22T01:43:43;37.17;;;12.90;;
74632;SDS011;63139;52.018;8.552;2023-02-22T01:46:21;32.08;;;11.02;;
74632;SDS011;63139;52.018;8.552;2023-02-22T01:48:53;46.85;;;14.85;;
74632;SDS011;63139;52.018;8.552;2023-02-22T01:51:24;39.20;;;12.82;;
74632;SDS011;63139;52.018;8.552;2023-02-22T01:53:56;29.05;;;10.00;;
74632;SDS011;63139;52.018;8.552;2023-02-22T01:56:28;32.90;;;10.45;;
74632;SDS011;63139;52.018;8.552;2023-02-22T01:59:00;27.25;;;9.05;;
74632;SDS011;63139;52.018;8.552;2023-02-22T02:01:33;37.22;;;10.98;;
74632;SDS011;63139;52.018;8.552;2023-02-22T02:04:03;35.97;;;11.07;;
74632;SDS011;63139;52.018;8.552;2023-02-22T02:06:34;37.67;;;11.80;;
74632;SDS011;63139;52.018;8.552;2023-02-22T02:09:04;32.45;;;10.90;;
74632;SDS011;63139;52.018;8.552;2023-02-22T02:11:37;27.20;;;9.77;;
74632;SDS011;63139;52.018;8.552;2023-02-22T02:14:07;24.52;;;8.32;;
74632;SDS011;63139;52.018;8.552;2023-02-22T02:16:38;33.90;;;10.30;;
74632;SDS011;63139;52.018;8.552;2023-02-22T02:19:09;36.70;;;11.00;;
74632;SDS011;63139;52.018;8.552;2023-02-22T02:22:02;38.67;;;10.95;;
74632;SDS011;63139;52.018;8.552;2023-02-22T02:27:49;38.35;;;10.13;;
74632;SDS011;63139;52.018;8.552;2023-02-22T02:30:39;43.13;;;11.32;;
74632;SDS011;63139;52.018;8.552;2023-02-22T02:33:18;44.42;;;11.57;;
74632;SDS011;63139;52.018;8.552;2023-02-22T02:35:56;48.17;;;12.52;;
74632;SDS011;63139;52.018;8.552;2023-02-22T02:38:30;39.90;;;10.88;;
74632;SDS011;63139;52.018;8.552;2023-02-22T02:41:06;41.67;;;11.52;;
74632;SDS011;63139;52.018;8.552;2023-02-22T02:43:41;42.45;;;11.68;;
74632;SDS011;63139;52.018;8.552;2023-02-22T02:46:14;50.08;;;13.32;;
74632;SDS011;63139;52.018;8.552;2023-02-22T02:48:49;41.00;;;11.18;;
74632;SDS011;63139;52.018;8.552;2023-02-22T02:51:22;38.13;;;11.27;;
74632;SDS011;63139;52.018;8.552;2023-02-22T02:53:54;43.05;;;11.63;;
74632;SDS011;63139;52.018;8.552;2023-02-22T02:56:23;44.05;;;12.02;;
74632;SDS011;63139;52.018;8.552;2023-02-22T02:58:52;31.83;;;9.45;;
74632;SDS011;63139;52.018;8.552;2023-02-22T03:01:27;48.30;;;13.88;;
74632;SDS011;63139;52.018;8.552;2023-02-22T03:04:21;37.85;;;10.50;;
74632;SDS011;63139;52.018;8.552;2023-02-22T03:07:02;29.15;;;9.63;;
74632;SDS011;63139;52.018;8.552;2023-02-22T03:09:46;30.00;;;8.65;;
74632;SDS011;63139;52.018;8.552;2023-02-22T03:12:29;37.78;;;10.18;;
74632;SDS011;63139;52.018;8.552;2023-02-22T03:15:08;48.85;;;12.32;;
74632;SDS011;63139;52.018;8.552;2023-02-22T03:17:50;35.47;;;9.85;;
74632;SDS011;63139;52.018;8.552;2023-02-22T03:20:23;47.42;;;11.13;;
74632;SDS011;63139;52.018;8.552;2023-02-22T03:23:00;29.67;;;9.40;;
74632;SDS011;63139;52.018;8.552;2023-02-22T03:25:32;47.25;;;12.13;;
74632;SDS011;63139;52.018;8.552;2023-02-22T03:28:05;53.63;;;12.40;;
74632;SDS011;63139;52.018;8.552;2023-02-22T03:30:37;36.05;;;10.20;;
74632;SDS011;63139;52.018;8.552;2023-02-22T03:33:10;44.75;;;10.55;;
74632;SDS011;63139;52.018;8.552;2023-02-22T03:35:45;37.53;;;10.07;;
74632;SDS011;63139;52.018;8.552;2023-02-22T03:38:17;36.88;;;10.82;;
74632;SDS011;63139;52.018;8.552;2023-02-22T03:40:48;54.88;;;12.77;;
74632;SDS011;63139;52.018;8.552;2023-02-22T03:43:21;37.38;;;10.80;;
74632;SDS011;63139;52.018;8.552;2023-02-22T03:45:54;40.80;;;10.68;;
74632;SDS011;63139;52.018;8.552;2023-02-22T03:48:25;38.58;;;10.10;;
74632;SDS011;63139;52.018;8.552;2023-02-22T03:51:01;55.42;;;12.52;;
74632;SDS011;63139;52.018;8.552;2023-02-22T03:53:31;52.72;;;12.52;;
74632;SDS011;63139;52.018;8.552;2023-02-22T03:56:05;39.33;;;10.30;;
74632;SDS011;63139;52.018;8.552;2023-02-22T03:58:36;38.92;;;9.90;;
74632;SDS011;63139;52.018;8.552;2023-02-22T04:01:09;53.13;;;12.73;;
74632;SDS011;63139;52.018;8.552;2023-02-22T04:03:38;49.55;;;12.13;;
74632;SDS011;63139;52.018;8.552;2023-02-22T04:06:09;47.63;;;12.20;;
74632;SDS011;63139;52.018;8.552;2023-02-22T04:08:37;64.22;;;14.85;;
74632;SDS011;63139;52.018;8.552;2023-02-22T04:11:06;71.55;;;14.80;;
74632;SDS011;63139;52.018;8.552;2023-02-22T04:13:34;54.90;;;11.93;;
74632;SDS011;63139;52.018;8.552;2023-02-22T04:16:01;84.35;;;12.13;;
74632;SDS011;63139;52.018;8.552;2023-02-22T04:18:30;77.05;;;11.80;;
74632;SDS011;63139;52.018;8.552;2023-02-22T04:20:58;57.28;;;12.02;;
74632;SDS011;63139;52.018;8.552;2023-02-22T04:23:33;60.83;;;12.35;;
74632;SDS011;63139;52.018;8.552;2023-02-22T04:26:01;74.07;;;13.43;;
74632;SDS011;63139;52.018;8.552;2023-02-22T04:28:29;110.80;;;13.13;;
74632;SDS011;63139;52.018;8.552;2023-02-22T04:31:07;69.75;;;12.07;;
74632;SDS011;63139;52.018;8.552;2023-02-22T04:33:36;193.25;;;14.30;;
74632;SDS011;63139;52.018;8.552;2023-02-22T04:36:04;217.48;;;16.85;;
74632;SDS011;63139;52.018;8.552;2023-02-22T04:38:35;189.02;;;16.17;;
74632;SDS011;63139;52.018;8.552;2023-02-22T04:41:03;198.98;;;17.38;;
74632;SDS011;63139;52.018;8.552;2023-02-22T04:43:31;51.47;;;11.75;;
74632;SDS011;63139;52.018;8.552;2023-02-22T04:46:05;127.50;;;15.15;;
74632;SDS011;63139;52.018;8.552;2023-02-22T04:48:33;175.15;;;15.98;;
74632;SDS011;63139;52.018;8.552;2023-02-22T04:51:01;259.33;;;20.92;;
74632;SDS011;63139;52.018;8.552;2023-02-22T04:53:30;110.63;;;13.57;;
74632;SDS011;63139;52.018;8.552;2023-02-22T04:55:59;69.30;;;11.77;;
74632;SDS011;63139;52.018;8.552;2023-02-22T04:58:28;86.95;;;12.80;;
74632;SDS011;63139;52.018;8.552;2023-02-22T05:00:57;70.40;;;10.90;;
74632;SDS011;63139;52.018;8.552;2023-02-22T05:03:25;114.03;;;13.10;;
74632;SDS011;63139;52.018;8.552;2023-02-22T05:05:53;59.30;;;11.98;;
74632;SDS011;63139;52.018;8.552;2023-02-22T05:08:21;164.05;;;15.90;;
74632;SDS011;63139;52.018;8.552;2023-02-22T05:10:48;162.32;;;14.75;;
74632;SDS011;63139;52.018;8.552;2023-02-22T05:13:17;122.05;;;13.75;;
74632;SDS011;63139;52.018;8.552;2023-02-22T05:15:45;163.00;;;14.02;;
74632;SDS011;63139;52.018;8.552;2023-02-22T05:18:14;70.82;;;14.40;;
74632;SDS011;63139;52.018;8.552;2023-02-22T05:20:42;169.25;;;15.48;;
74632;SDS011;63139;52.018;8.552;2023-02-22T05:23:10;84.35;;;12.60;;
74632;SDS011;63139;52.018;8.552;2023-02-22T05:25:37;49.90;;;11.00;;
74632;SDS011;63139;52.018;8.552;2023-02-22T05:28:07;107.15;;;12.90;;
74632;SDS011;63139;52.018;8.552;2023-02-22T05:30:39;152.60;;;13.82;;
74632;SDS011;63139;52.018;8.552;2023-02-22T05:33:07;108.35;;;14.02;;
74632;SDS011;63139;52.018;8.552;2023-02-22T05:35:36;89.25;;;10.68;;
74632;SDS011;63139;52.018;8.552;2023-02-22T05:38:04;55.60;;;10.07;;
74632;SDS011;63139;52.018;8.552;2023-02-22T05:40:32;55.70;;;9.10;;
74632;SDS011;63139;52.018;8.552;2023-02-22T05:43:00;57.40;;;9.40;;
74632;SDS011;63139;52.018;8.552;2023-02-22T05:45:29;87.28;;;10.13;;
74632;SDS011;63139;52.018;8.552;2023-02-22T05:47:58;163.68;;;13.15;;
74632;SDS011;63139;52.018;8.552;2023-02-22T05:50:26;41.08;;;8.00;;
74632;SDS011;63139;52.018;8.552;2023-02-22T05:52:54;23.50;;;7.25;;
74632;SDS011;63139;52.018;8.552;2023-02-22T05:55:22;21.80;;;7.60;;
74632;SDS011;63139;52.018;8.552;2023-02-22T05:57:50;53.70;;;9.57;;
74632;SDS011;63139;52.018;8.552;2023-02-22T06:02:52;45.53;;;11.15;;
74632;SDS011;63139;52.018;8.552;2023-02-22T06:05:22;33.28;;;9.25;;
74632;SDS011;63139;52.018;8.552;2023-02-22T06:07:50;29.15;;;8.93;;
74632;SDS011;63139;52.018;8.552;2023-02-22T06:10:19;30.00;;;9.60;;
74632;SDS011;63139;52.018;8.552;2023-02-22T06:12:47;30.33;;;9.85;;
74632;SDS011;63139;52.018;8.552;2023-02-22T06:15:15;39.05;;;9.40;;
74632;SDS011;63139;52.018;8.552;2023-02-22T06:17:45;38.22;;;11.35;;
74632;SDS011;63139;52.018;8.552;2023-02-22T06:20:14;37.85;;;11.23;;
74632;SDS011;63139;52.018;8.552;2023-02-22T06:22:46;39.70;;;10.18;;
74632;SDS011;63139;52.018;8.552;2023-02-22T06:25:16;45.03;;;12.80;;
74632;SDS011;63139;52.018;8.552;2023-02-22T06:27:45;25.67;;;9.23;;
74632;SDS011;63139;52.018;8.552;2023-02-22T06:30:14;31.98;;;9.35;;
74632;SDS011;63139;52.018;8.552;2023-02-22T06:32:44;32.45;;;9.32;;
74632;SDS011;63139;52.018;8.552;2023-02-22T06:35:13;36.70;;;10.35;;
74632;SDS011;63139;52.018;8.552;2023-02-22T06:37:41;36.92;;;10.80;;
74632;SDS011;63139;52.018;8.552;2023-02-22T06:40:11;37.88;;;10.13;;
74632;SDS011;63139;52.018;8.552;2023-02-22T06:42:39;45.45;;;13.93;;
74632;SDS011;63139;52.018;8.552;2023-02-22T06:45:08;26.30;;;9.98;;
74632;SDS011;63139;52.018;8.552;2023-02-22T06:47:37;29.15;;;9.25;;
74632;SDS011;63139;52.018;8.552;2023-02-22T06:50:05;37.95;;;11.32;;
74632;SDS011;63139;52.018;8.552;2023-02-22T06:52:34;42.42;;;11.25;;
74632;SDS011;63139;52.018;8.552;2023-02-22T06:55:02;37.08;;;10.63;;
74632;SDS011;63139;52.018;8.552;2023-02-22T06:57:32;46.80;;;12.38;;
74632;SDS011;63139;52.018;8.552;2023-02-22T06:59:59;30.20;;;10.10;;
74632;SDS011;63139;52.018;8.552;2023-02-22T07:02:27;43.75;;;12.02;;
74632;SDS011;63139;52.018;8.552;2023-02-22T07:04:55;33.47;;;11.05;;
74632;SDS011;63139;52.018;8.552;2023-02-22T07:07:22;38.70;;;11.65;;
74632;SDS011;63139;52.018;8.552;2023-02-22T07:09:50;47.47;;;13.30;;
74632;SDS011;63139;52.018;8.552;2023-02-22T07:12:18;34.55;;;11.05;;
74632;SDS011;63139;52.018;8.552;2023-02-22T07:14:47;58.67;;;13.40;;
74632;SDS011;63139;52.018;8.552;2023-02-22T07:17:15;48.17;;;13.00;;
74632;SDS011;63139;52.018;8.552;2023-02-22T07:19:43;55.35;;;13.18;;
74632;SDS011;63139;52.018;8.552;2023-02-22T07:22:10;51.30;;;13.38;;
74632;SDS011;63139;52.018;8.552;2023-02-22T07:24:38;36.40;;;12.35;;
74632;SDS011;63139;52.018;8.552;2023-02-22T07:27:06;34.17;;;10.57;;
74632;SDS011;63139;52.018;8.552;2023-02-22T07:29:34;64.82;;;14.65;;
74632;SDS011;63139;52.018;8.552;2023-02-22T07:32:03;58.78;;;12.75;;
74632;SDS011;63139;52.018;8.552;2023-02-22T07:34:31;70.00;;;17.17;;
74632;SDS011;63139;52.018;8.552;2023-02-22T07:36:58;66.25;;;15.05;;
74632;SDS011;63139;52.018;8.552;2023-02-22T07:39:26;50.35;;;13.13;;
74632;SDS011;63139;52.018;8.552;2023-02-22T07:41:54;69.78;;;17.38;;
74632;SDS011;63139;52.018;8.552;2023-02-22T07:44:22;75.45;;;17.40;;
74632;SDS011;63139;52.018;8.552;2023-02-22T07:46:50;74.40;;;17.50;;
74632;SDS011;63139;52.018;8.552;2023-02-22T07:49:19;65.38;;;17.35;;
74632;SDS011;63139;52.018;8.552;2023-02-22T07:51:47;54.17;;;15.60;;
74632;SDS011;63139;52.018;8.552;2023-02-22T07:54:15;75.00;;;17.88;;
74632;SDS011;63139;52.018;8.552;2023-02-22T07:56:43;56.30;;;15.15;;
74632;SDS011;63139;52.018;8.552;2023-02-22T07:59:12;51.55;;;14.93;;
74632;SDS011;63139;52.018;8.552;2023-02-22T08:01:40;66.05;;;18.40;;
74632;SDS011;63139;52.018;8.552;2023-02-22T08:04:08;58.67;;;15.68;;
74632;SDS011;63139;52.018;8.552;2023-02-22T08:06:37;67.30;;;16.60;;
74632;SDS011;63139;52.018;8.552;2023-02-22T08:09:04;51.67;;;16.38;;
74632;SDS011;63139;52.018;8.552;2023-02-22T08:11:32;68.40;;;17.25;;
74632;SDS011;63139;52.018;8.552;2023-02-22T08:14:00;63.85;;;17.20;;
74632;SDS011;63139;52.018;8.552;2023-02-22T08:16:28;68.70;;;18.40;;
74632;SDS011;63139;52.018;8.552;2023-02-22T08:18:56;54.63;;;15.35;;
74632;SDS011;63139;52.018;8.552;2023-02-22T08:21:23;70.72;;;16.70;;
74632;SDS011;63139;52.018;8.552;2023-02-22T08:23:53;57.13;;;16.58;;
74632;SDS011;63139;52.018;8.552;2023-02-22T08:26:21;52.75;;;15.77;;
74632;SDS011;63139;52.018;8.552;2023-02-22T08:28:50;63.22;;;17.08;;
74632;SDS011;63139;52.018;8.552;2023-02-22T08:31:18;63.92;;;18.17;;
74632;SDS011;63139;52.018;8.552;2023-02-22T08:33:46;58.92;;;18.35;;
74632;SDS011;63139;52.018;8.552;2023-02-22T08:36:15;60.35;;;19.23;;
74632;SDS011;63139;52.018;8.552;2023-02-22T08:38:43;63.42;;;19.50;;
74632;SDS011;63139;52.018;8.552;2023-02-22T08:41:12;55.70;;;17.45;;
74632;SDS011;63139;52.018;8.552;2023-02-22T08:43:41;60.17;;;19.75;;
74632;SDS011;63139;52.018;8.552;2023-02-22T08:46:08;51.30;;;18.88;;
74632;SDS011;63139;52.018;8.552;2023-02-22T08:48:36;54.22;;;20.13;;
74632;SDS011;63139;52.018;8.552;2023-02-22T08:51:04;53.67;;;20.20;;
74632;SDS011;63139;52.018;8.552;2023-02-22T08:53:32;49.35;;;19.02;;
74632;SDS011;63139;52.018;8.552;2023-02-22T08:56:00;61.88;;;20.52;;
74632;SDS011;63139;52.018;8.552;2023-02-22T08:58:29;44.15;;;16.77;;
74632;SDS011;63139;52.018;8.552;2023-02-22T09:00:56;43.20;;;19.52;;
74632;SDS011;63139;52.018;8.552;2023-02-22T09:03:24;41.83;;;16.88;;
74632;SDS011;63139;52.018;8.552;2023-02-22T09:05:52;45.78;;;19.65;;
74632;SDS011;63139;52.018;8.552;2023-02-22T09:08:20;41.58;;;18.35;;
74632;SDS011;63139;52.018;8.552;2023-02-22T09:10:48;50.50;;;20.42;;
74632;SDS011;63139;52.018;8.552;2023-02-22T09:13:18;38.85;;;16.63;;
74632;SDS011;63139;52.018;8.552;2023-02-22T09:15:47;42.67;;;17.92;;
74632;SDS011;63139;52.018;8.552;2023-02-22T09:18:15;45.20;;;19.92;;
74632;SDS011;63139;52.018;8.552;2023-02-22T09:20:43;50.03;;;21.88;;
74632;SDS011;63139;52.018;8.552;2023-02-22T09:23:11;45.78;;;19.30;;
74632;SDS011;63139;52.018;8.552;2023-02-22T09:25:39;45.30;;;18.67;;
74632;SDS011;63139;52.018;8.552;2023-02-22T09:28:07;36.95;;;18.50;;
74632;SDS011;63139;52.018;8.552;2023-02-22T09:30:35;35.53;;;15.93;;
74632;SDS011;63139;52.018;8.552;2023-02-22T09:33:05;27.05;;;14.50;;
74632;SDS011;63139;52.018;8.552;2023-02-22T09:35:36;26.63;;;14.57;;
74632;SDS011;63139;52.018;8.552;2023-02-22T09:38:08;25.63;;;13.57;;
74632;SDS011;63139;52.018;8.552;2023-02-22T09:40:37;23.10;;;13.00;;
74632;SDS011;63139;52.018;8.552;2023-02-22T09:43:21;25.92;;;13.60;;
74632;SDS011;63139;52.018;8.552;2023-02-22T09:46:01;24.77;;;13.65;;
74632;SDS011;63139;52.018;8.552;2023-02-22T09:48:39;23.63;;;12.88;;
74632;SDS011;63139;52.018;8.552;2023-02-22T09:51:18;25.35;;;12.98;;
74632;SDS011;63139;52.018;8.552;2023-02-22T09:53:54;22.40;;;12.80;;
74632;SDS011;63139;52.018;8.552;2023-02-22T09:56:24;25.05;;;11.70;;
74632;SDS011;63139;52.018;8.552;2023-02-22T09:58:53;21.42;;;12.82;;
74632;SDS011;63139;52.018;8.552;2023-02-22T10:01:24;18.25;;;10.82;;
74632;SDS011;63139;52.018;8.552;2023-02-22T10:03:57;19.50;;;11.23;;
74632;SDS011;63139;52.018;8.552;2023-02-22T10:06:29;20.10;;;12.27;;
74632;SDS011;63139;52.018;8.552;2023-02-22T10:09:00;20.05;;;11.50;;
74632;SDS011;63139;52.018;8.552;2023-02-22T10:11:35;22.85;;;13.32;;
74632;SDS011;63139;52.018;8.552;2023-02-22T10:17:10;19.88;;;11.75;;
74632;SDS011;63139;52.018;8.552;2023-02-22T10:19:52;19.02;;;10.77;;
74632;SDS011;63139;52.018;8.552;2023-02-22T10:22:34;18.15;;;11.27;;
74632;SDS011;63139;52.018;8.552;2023-02-22T10:25:11;18.13;;;10.68;;
74632;SDS011;63139;52.018;8.552;2023-02-22T10:27:44;18.17;;;11.10;;
74632;SDS011;63139;52.018;8.552;2023-02-22T10:30:16;20.55;;;11.77;;
74632;SDS011;63139;52.018;8.552;2023-02-22T10:35:22;17.38;;;9.77;;
74632;SDS011;63139;52.018;8.552;2023-02-22T10:37:53;18.23;;;11.13;;
74632;SDS011;63139;52.018;8.552;2023-02-22T10:40:25;17.13;;;10.68;;
74632;SDS011;63139;52.018;8.552;2023-02-22T10:43:01;15.15;;;9.50;;
74632;SDS011;63139;52.018;8.552;2023-02-22T10:45:31;18.95;;;11.20;;
74632;SDS011;63139;52.018;8.552;2023-02-22T10:48:03;18.55;;;10.27;;
74632;SDS011;63139;52.018;8.552;2023-02-22T10:50:36;15.60;;;8.90;;
74632;SDS011;63139;52.018;8.552;2023-02-22T10:53:06;17.27;;;10.52;;
74632;SDS011;63139;52.018;8.552;2023-02-22T10:55:34;15.70;;;9.70;;
74632;SDS011;63139;52.018;8.552;2023-02-22T10:58:05;19.27;;;9.68;;
74632;SDS011;63139;52.018;8.552;2023-02-22T11:00:34;17.88;;;10.68;;
74632;SDS011;63139;52.018;8.552;2023-02-22T11:03:04;15.07;;;9.70;;
74632;SDS011;63139;52.018;8.552;2023-02-22T11:05:44;15.00;;;9.60;;
74632;SDS011;63139;52.018;8.552;2023-02-22T11:08:12;18.48;;;10.98;;
74632;SDS011;63139;52.018;8.552;2023-02-22T11:10:42;17.40;;;10.73;;
74632;SDS011;63139;52.018;8.552;2023-02-22T11:13:16;16.10;;;9.32;;
74632;SDS011;63139;52.018;8.552;2023-02-22T11:15:44;15.88;;;9.95;;
74632;SDS011;63139;52.018;8.552;2023-02-22T11:18:20;14.18;;;9.40;;
74632;SDS011;63139;52.018;8.552;2023-02-22T11:21:03;13.95;;;8.57;;
74632;SDS011;63139;52.018;8.552;2023-02-22T11:23:33;15.57;;;9.50;;
74632;SDS011;63139;52.018;8.552;2023-02-22T11:26:03;16.15;;;10.00;;
74632;SDS011;63139;52.018;8.552;2023-02-22T11:28:33;15.15;;;8.50;;
74632;SDS011;63139;52.018;8.552;2023-02-22T11:31:11;15.57;;;9.25;;
74632;SDS011;63139;52.018;8.552;2023-02-22T11:33:47;10.80;;;8.30;;
74632;SDS011;63139;52.018;8.552;2023-02-22T11:39:19;12.38;;;7.90;;
74632;SDS011;63139;52.018;8.552;2023-02-22T11:41:49;13.07;;;7.60;;
74632;SDS011;63139;52.018;8.552;2023-02-22T11:44:21;20.25;;;8.02;;
74632;SDS011;63139;52.018;8.552;2023-02-22T11:46:51;13.52;;;7.93;;
74632;SDS011;63139;52.018;8.552;2023-02-22T11:49:22;10.70;;;7.05;;
74632;SDS011;63139;52.018;8.552;2023-02-22T11:52:09;14.27;;;8.38;;
74632;SDS011;63139;52.018;8.552;2023-02-22T11:54:53;10.02;;;6.78;;
74632;SDS011;63139;52.018;8.552;2023-02-22T11:57:36;9.95;;;6.68;;
74632;SDS011;63139;52.018;8.552;2023-02-22T12:00:17;11.57;;;6.47;;
74632;SDS011;63139;52.018;8.552;2023-02-22T12:03:02;9.60;;;5.85;;
74632;SDS011;63139;52.018;8.552;2023-02-22T12:05:44;12.77;;;6.93;;
74632;SDS011;63139;52.018;8.552;2023-02-22T12:08:28;12.32;;;7.00;;
74632;SDS011;63139;52.018;8.552;2023-02-22T12:11:04;10.45;;;6.50;;
74632;SDS011;63139;52.018;8.552;2023-02-22T12:13:48;10.70;;;6.07;;
74632;SDS011;63139;52.018;8.552;2023-02-22T12:16:27;8.75;;;5.82;;
74632;SDS011;63139;52.018;8.552;2023-02-22T12:19:04;11.02;;;5.97;;
74632;SDS011;63139;52.018;8.552;2023-02-22T12:21:38;10.10;;;6.00;;
74632;SDS011;63139;52.018;8.552;2023-02-22T12:24:11;13.88;;;7.15;;
74632;SDS011;63139;52.018;8.552;2023-02-22T12:26:44;9.43;;;5.63;;
74632;SDS011;63139;52.018;8.552;2023-02-22T12:29:18;10.82;;;5.82;;
74632;SDS011;63139;52.018;8.552;2023-02-22T12:34:25;9.38;;;5.88;;
74632;SDS011;63139;52.018;8.552;2023-02-22T12:36:59;8.20;;;5.47;;
74632;SDS011;63139;52.018;8.552;2023-02-22T12:39:38;9.13;;;6.30;;
74632;SDS011;63139;52.018;8.552;2023-02-22T12:42:20;8.53;;;5.97;;
74632;SDS011;63139;52.018;8.552;2023-02-22T12:44:55;9.73;;;5.03;;
74632;SDS011;63139;52.018;8.552;2023-02-22T12:47:29;8.35;;;5.53;;
74632;SDS011;63139;52.018;8.552;2023-02-22T12:52:37;7.50;;;4.80;;
74632;SDS011;63139;52.018;8.552;2023-02-22T12:55:13;6.80;;;4.95;;
74632;SDS011;63139;52.018;8.552;2023-02-22T12:57:46;7.93;;;4.88;;
74632;SDS011;63139;52.018;8.552;2023-02-22T13:00:18;7.88;;;4.90;;
74632;SDS011;63139;52.018;8.552;2023-02-22T13:02:54;7.63;;;4.35;;
74632;SDS011;63139;52.018;8.552;2023-02-22T13:05:25;7.35;;;4.90;;
74632;SDS011;63139;52.018;8.552;2023-02-22T13:08:00;7.18;;;4.20;;
74632;SDS011;63139;52.018;8.552;2023-02-22T13:10:47;7.95;;;4.70;;
74632;SDS011;63139;52.018;8.552;2023-02-22T13:13:35;10.25;;;4.55;;
74632;SDS011;63139;52.018;8.552;2023-02-22T13:16:16;9.55;;;4.97;;
74632;SDS011;63139;52.018;8.552;2023-02-22T13:18:55;7.40;;;4.50;;
74632;SDS011;63139;52.018;8.552;2023-02-22T13:21:30;6.68;;;4.60;;
74632;SDS011;63139;52.018;8.552;2023-02-22T13:24:13;5.63;;;3.78;;
74632;SDS011;63139;52.018;8.552;2023-02-22T13:26:48;8.32;;;4.93;;
74632;SDS011;63139;52.018;8.552;2023-02-22T13:29:19;7.72;;;4.55;;
74632;SDS011;63139;52.018;8.552;2023-02-22T13:31:57;7.13;;;4.78;;
74632;SDS011;63139;52.018;8.552;2023-02-22T13:34:53;6.80;;;4.35;;
74632;SDS011;63139;52.018;8.552;2023-02-22T13:37:35;6.55;;;4.47;;
74632;SDS011;63139;52.018;8.552;2023-02-22T13:40:35;8.95;;;5.10;;
74632;SDS011;63139;52.018;8.552;2023-02-22T13:43:29;8.57;;;4.80;;
74632;SDS011;63139;52.018;8.552;2023-02-22T13:46:12;6.78;;;4.13;;
74632;SDS011;63139;52.018;8.552;2023-02-22T13:49:05;6.88;;;4.93;;
74632;SDS011;63139;52.018;8.552;2023-02-22T13:51:45;7.43;;;4.63;;
74632;SDS011;63139;52.018;8.552;2023-02-22T13:54:16;6.93;;;4.93;;
74632;SDS011;63139;52.018;8.552;2023-02-22T13:56:50;7.15;;;4.95;;
74632;SDS011;63139;52.018;8.552;2023-02-22T13:59:22;7.28;;;4.68;;
74632;SDS011;63139;52.018;8.552;2023-02-22T14:01:53;6.57;;;4.75;;
74632;SDS011;63139;52.018;8.552;2023-02-22T14:10:35;11.05;;;5.50;;
74632;SDS011;63139;52.018;8.552;2023-02-22T14:13:21;8.68;;;5.57;;
74632;SDS011;63139;52.018;8.552;2023-02-22T14:18:59;8.80;;;4.85;;
74632;SDS011;63139;52.018;8.552;2023-02-22T14:21:31;7.28;;;5.15;;
74632;SDS011;63139;52.018;8.552;2023-02-22T14:24:08;6.50;;;4.53;;
74632;SDS011;63139;52.018;8.552;2023-02-22T14:26:38;6.07;;;4.18;;
74632;SDS011;63139;52.018;8.552;2023-02-22T14:29:19;8.25;;;4.30;;
74632;SDS011;63139;52.018;8.552;2023-02-22T14:32:04;6.60;;;4.40;;
74632;SDS011;63139;52.018;8.552;2023-02-22T14:37:24;7.55;;;5.00;;
74632;SDS011;63139;52.018;8.552;2023-02-22T14:39:56;7.50;;;5.47;;
74632;SDS011;63139;52.018;8.552;2023-02-22T14:42:38;9.68;;;5.80;;
74632;SDS011;63139;52.018;8.552;2023-02-22T14:45:13;9.20;;;5.50;;
74632;SDS011;63139;52.018;8.552;2023-02-22T14:47:47;7.37;;;5.03;;
74632;SDS011;63139;52.018;8.552;2023-02-22T14:50:27;10.38;;;5.97;;
74632;SDS011;63139;52.018;8.552;2023-02-22T14:53:04;8.73;;;5.63;;
74632;SDS011;63139;52.018;8.552;2023-02-22T14:55:40;10.45;;;6.07;;
74632;SDS011;63139;52.018;8.552;2023-02-22T14:58:11;7.40;;;5.35;;
74632;SDS011;63139;52.018;8.552;2023-02-22T15:00:44;9.13;;;5.30;;
74632;SDS011;63139;52.018;8.552;2023-02-22T15:03:24;8.45;;;5.05;;
74632;SDS011;63139;52.018;8.552;2023-02-22T15:06:02;10.88;;;5.63;;
74632;SDS011;63139;52.018;8.552;2023-02-22T15:08:31;8.77;;;6.10;;
74632;SDS011;63139;52.018;8.552;2023-02-22T15:10:59;8.35;;;5.68;;
74632;SDS011;63139;52.018;8.552;2023-02-22T15:13:29;8.73;;;5.60;;
74632;SDS011;63139;52.018;8.552;2023-02-22T15:16:00;7.55;;;5.70;;
74632;SDS011;63139;52.018;8.552;2023-02-22T15:18:33;7.15;;;4.90;;
74632;SDS011;63139;52.018;8.552;2023-02-22T15:21:05;5.40;;;3.80;;
74632;SDS011;63139;52.018;8.552;2023-02-22T15:23:42;5.80;;;3.78;;
74632;SDS011;63139;52.018;8.552;2023-02-22T15:26:15;6.88;;;3.85;;
74632;SDS011;63139;52.018;8.552;2023-02-22T15:28:44;4.68;;;3.33;;